Terminal Aerodrome Forecast
Issued by NWS

Home | Current Version | Previous Version | Text Only | Print | Product List | Glossary Off
Versions: 1 2 3 4 5 6 7 8 9 10 11 12 13 14 15 16 17 18 19 20

000
FTUS43 KLOT 192334
TAFDPA
TAF
KDPA 192334Z 2000/2024 35008KT P6SM FEW250
     FM200200 00000KT P6SM SKC
      TEMPO 2009/2013 4SM BR=

USA.gov is the U.S. government's official web portal to all federal, state and local government web resources and services.